チューリッヒ の空港の天気 - METARとTAF

チューリヒ国際空港 ( LSZH / ZRH ) - スイス チューリッヒ
飛行場実況気象(Metar)
観測時間05/28 02:50 CEST (05/28 00:50 UTC)
風向・風速北北西 1m/s
視程10km以上
天気現象
なし
気温8℃
湿度81%
気圧1030hPa
METARLSZH 280050Z 34002KT CAVOK 08/05 Q1030 NOSIG
過去の天気等 Google飛行場航空写真 Wunderground天気予報

過去48時間のMETAR

飛行場予報(TAF)
発表時間: 5/28 01:25 CEST (5/27 23:25 UTC)
予報対象時間: 28日2時 CEST ~ 29日8時 CEST
風向・風速不定 2m/s
視程10km以上
なし
28日13時 CEST ~ 28日16時 CEST に徐々に
風向・風速北北東 4m/s
視程10km以上
全天の4割程度の雲 雲底高度 1520m
28日13時 CEST から 確率 30% で
天気現象しゅう雨
全天の4割程度の塔状積雲 雲底高度 1370m
28日20時 CEST ~ 29日1時 CEST に一時的に
風向・風速北東 8m/s
TAF LSZH 272325Z 2800/2906 VRB03KT CAVOK TX23/2815Z TN07/2804Z TN07/2904Z
BECMG 2811/2814 03008KT 9999 SCT050
PROB30 2811/2818 SHRA SCT045TCU
TEMPO 2818/2823 04015KT